Time;durP1;ratioP1;P1;durP2;ratioP2;P2;SDS_P1;SDS_P2;PMS_P1;PMS_P2;Temp;Humidity;BMP_temperature;BMP_pressure;BME280_temperature;BME280_humidity;BME280_pressure;Samples;Min_cycle;Max_cycle;Signal;HPM_P1;HPM_P2
2022/04/11 00:01:26;;;;;;;4.45;1.63;;;;;;;;;;5027903;28;20377;-67
2022/04/11 00:03:52;;;;;;;3.47;1.85;;;;;;;;;;5010245;28;20045;-67
2022/04/11 00:06:18;;;;;;;5.15;2.08;;;;;;;;;;5027276;28;20555;-67
2022/04/11 00:08:44;;;;;;;4.50;1.77;;;;;;;;;;5028055;28;20610;-67
2022/04/11 00:11:10;;;;;;;4.50;1.88;;;;;;;;;;5027896;28;20045;-67
2022/04/11 00:13:36;;;;;;;2.53;1.45;;;;;;;;;;5027759;28;20087;-67
2022/04/11 00:16:02;;;;;;;3.55;1.70;;;;;;;;;;5027650;28;20468;-66
2022/04/11 00:18:28;;;;;;;5.38;1.92;;;;;;;;;;5028068;28;20587;-68
2022/04/11 00:20:55;;;;;;;10.40;2.58;;;;;;;;;;5027978;28;20455;-66
2022/04/11 00:23:21;;;;;;;3.80;1.73;;;;;;;;;;5027625;28;20049;-66
2022/04/11 00:25:47;;;;;;;5.07;1.60;;;;;;;;;;5028059;28;20179;-67
2022/04/11 00:28:13;;;;;;;6.05;1.48;;;;;;;;;;5027743;28;20373;-67
2022/04/11 00:30:39;;;;;;;5.22;1.80;;;;;;;;;;5027864;28;20413;-66
2022/04/11 00:33:05;;;;;;;3.67;1.60;;;;;;;;;;5028278;28;20049;-66
2022/04/11 00:35:31;;;;;;;3.50;1.60;;;;;;;;;;5027389;28;20054;-67
2022/04/11 00:37:57;;;;;;;4.35;2.08;;;;;;;;;;5026861;28;20038;-66
2022/04/11 00:40:23;;;;;;;2.85;1.50;;;;;;;;;;5027363;28;20061;-66
2022/04/11 00:42:49;;;;;;;3.80;1.60;;;;;;;;;;5009215;28;20140;-67
2022/04/11 00:45:16;;;;;;;3.53;1.67;;;;;;;;;;5027067;28;20207;-67
2022/04/11 00:47:42;;;;;;;2.70;1.70;;;;;;;;;;5027253;28;20042;-66
2022/04/11 00:50:10;;;;;;;3.10;1.50;;;;;;;;;;5026445;28;20045;-66
2022/04/11 00:52:40;;;;;;;2.42;1.30;;;;;;;;;;5027051;28;20057;-66
2022/04/11 00:55:09;;;;;;;3.25;1.63;;;;;;;;;;5027095;28;20037;-66
2022/04/11 00:57:35;;;;;;;2.75;1.40;;;;;;;;;;5027469;28;20077;-66
2022/04/11 01:00:04;;;;;;;4.30;1.40;;;;;;;;;;5027038;28;20464;-66
2022/04/11 01:02:30;;;;;;;2.97;1.58;;;;;;;;;;5026611;28;20499;-66
2022/04/11 01:04:56;;;;;;;4.00;1.40;;;;;;;;;;5026936;28;20053;-66
2022/04/11 01:07:22;;;;;;;2.83;1.52;;;;;;;;;;5027174;28;20041;-66
2022/04/11 01:09:48;;;;;;;3.05;1.40;;;;;;;;;;5026464;28;20045;-67
2022/04/11 01:12:15;;;;;;;3.17;1.55;;;;;;;;;;5027244;28;20049;-67
2022/04/11 01:14:42;;;;;;;4.15;1.80;;;;;;;;;;5026459;28;20037;-67
2022/04/11 01:17:08;;;;;;;2.53;1.25;;;;;;;;;;5028944;28;20050;-66
2022/04/11 01:19:35;;;;;;;3.15;1.70;;;;;;;;;;5013471;28;20099;-66
2022/04/11 01:22:01;;;;;;;4.93;1.98;;;;;;;;;;5030908;28;20082;-66
2022/04/11 01:24:29;;;;;;;4.93;1.60;;;;;;;;;;5031203;28;20175;-66
2022/04/11 01:26:55;;;;;;;6.45;1.40;;;;;;;;;;5031331;28;20045;-66
2022/04/11 01:29:22;;;;;;;3.10;1.45;;;;;;;;;;5030479;28;20495;-67
2022/04/11 01:31:48;;;;;;;3.53;1.50;;;;;;;;;;5030870;28;20049;-67
2022/04/11 01:34:14;;;;;;;2.95;1.30;;;;;;;;;;5030420;28;20449;-67
2022/04/11 01:36:40;;;;;;;4.50;1.35;;;;;;;;;;5030792;28;20049;-67
2022/04/11 01:39:06;;;;;;;3.30;1.33;;;;;;;;;;5030472;28;20152;-67
2022/04/11 01:41:34;;;;;;;3.63;1.30;;;;;;;;;;5030019;28;20057;-67
2022/04/11 01:44:00;;;;;;;10.43;1.55;;;;;;;;;;5030329;28;20437;-68
2022/04/11 01:46:26;;;;;;;11.13;2.53;;;;;;;;;;5030629;28;20490;-67
2022/04/11 01:48:52;;;;;;;7.25;1.50;;;;;;;;;;5029611;28;20056;-66
2022/04/11 01:51:18;;;;;;;4.53;1.10;;;;;;;;;;5029733;28;20586;-66
2022/04/11 01:53:44;;;;;;;12.00;1.88;;;;;;;;;;5030027;28;20518;-66
2022/04/11 01:56:10;;;;;;;2.45;1.08;;;;;;;;;;5029771;28;20053;-67
2022/04/11 01:58:36;;;;;;;3.17;1.13;;;;;;;;;;5012547;28;20041;-67
2022/04/11 02:01:03;;;;;;;5.22;1.40;;;;;;;;;;5030212;28;20053;-67
2022/04/11 02:03:29;;;;;;;5.60;1.30;;;;;;;;;;5030319;28;20496;-66
2022/04/11 02:05:56;;;;;;;3.20;1.30;;;;;;;;;;5030467;28;20540;-66
2022/04/11 02:08:22;;;;;;;3.22;1.30;;;;;;;;;;5030448;28;20049;-67
2022/04/11 02:10:48;;;;;;;5.40;1.52;;;;;;;;;;5029680;28;20385;-67
2022/04/11 02:13:14;;;;;;;2.85;1.00;;;;;;;;;;5030186;28;20506;-67
2022/04/11 02:15:40;;;;;;;2.22;1.25;;;;;;;;;;5030262;28;20041;-67
2022/04/11 02:18:07;;;;;;;3.95;1.40;;;;;;;;;;5029973;28;20049;-67
2022/04/11 02:20:34;;;;;;;2.47;1.20;;;;;;;;;;5030201;28;20527;-67
2022/04/11 02:23:00;;;;;;;2.92;1.30;;;;;;;;;;5029516;28;20049;-67
2022/04/11 02:25:29;;;;;;;2.03;1.00;;;;;;;;;;5030037;28;20801;-67
2022/04/11 02:27:57;;;;;;;2.53;1.20;;;;;;;;;;5029049;28;20103;-67
2022/04/11 02:30:24;;;;;;;3.20;1.40;;;;;;;;;;5029921;28;20048;-67
2022/04/11 02:32:50;;;;;;;3.65;1.20;;;;;;;;;;5029640;28;20049;-67
2022/04/11 02:35:16;;;;;;;2.92;1.17;;;;;;;;;;5028691;28;20135;-67
2022/04/11 02:37:44;;;;;;;4.75;1.85;;;;;;;;;;5029576;28;20046;-67
2022/04/11 02:40:12;;;;;;;2.35;1.00;;;;;;;;;;5028992;28;20085;-67
2022/04/11 02:42:40;;;;;;;3.28;1.20;;;;;;;;;;5028694;28;20049;-67
2022/04/11 02:45:07;;;;;;;2.13;1.10;;;;;;;;;;5028443;28;20046;-65
2022/04/11 02:47:34;;;;;;;1.65;0.95;;;;;;;;;;5028915;28;20038;-66
2022/04/11 02:50:00;;;;;;;4.47;1.40;;;;;;;;;;5028780;28;20739;-66
2022/04/11 02:52:28;;;;;;;5.43;1.10;;;;;;;;;;5029265;28;20481;-67
2022/04/11 02:54:54;;;;;;;5.13;1.10;;;;;;;;;;5028729;28;20046;-67
2022/04/11 02:57:20;;;;;;;4.20;1.30;;;;;;;;;;5028513;28;20052;-67
2022/04/11 02:59:46;;;;;;;2.45;1.13;;;;;;;;;;5029102;28;20128;-67
2022/04/11 03:02:12;;;;;;;4.38;1.30;;;;;;;;;;5028791;28;20049;-67
2022/04/11 03:04:38;;;;;;;3.72;1.00;;;;;;;;;;5029220;28;20049;-67
2022/04/11 03:07:05;;;;;;;3.45;1.20;;;;;;;;;;5029165;28;20057;-67
2022/04/11 03:09:31;;;;;;;4.40;1.20;;;;;;;;;;5027932;28;20132;-68
2022/04/11 03:11:57;;;;;;;3.00;1.10;;;;;;;;;;5029131;28;20049;-68
2022/04/11 03:14:24;;;;;;;4.13;1.52;;;;;;;;;;5028369;28;20057;-67
2022/04/11 03:16:50;;;;;;;2.63;1.10;;;;;;;;;;5029227;28;20042;-67
2022/04/11 03:19:16;;;;;;;2.13;0.95;;;;;;;;;;5028842;28;20400;-66
2022/04/11 03:21:42;;;;;;;3.50;1.00;;;;;;;;;;5029027;28;20127;-66
2022/04/11 03:24:09;;;;;;;1.88;0.98;;;;;;;;;;5028357;28;20514;-66
2022/04/11 03:26:35;;;;;;;2.63;1.40;;;;;;;;;;5028845;28;20100;-68
2022/04/11 03:29:01;;;;;;;2.83;1.00;;;;;;;;;;5028046;28;20096;-68
2022/04/11 03:31:27;;;;;;;2.08;1.02;;;;;;;;;;5028579;28;20061;-66
2022/04/11 03:33:54;;;;;;;2.75;1.08;;;;;;;;;;5028371;28;20115;-65
2022/04/11 03:36:21;;;;;;;3.30;1.20;;;;;;;;;;5028584;28;20064;-69
2022/04/11 03:38:47;;;;;;;6.97;1.10;;;;;;;;;;5028430;28;20099;-65
2022/04/11 03:41:13;;;;;;;6.82;1.25;;;;;;;;;;5027169;28;20049;-66
2022/04/11 03:43:39;;;;;;;3.13;1.00;;;;;;;;;;5028027;28;20173;-66
2022/04/11 03:46:05;;;;;;;3.90;1.13;;;;;;;;;;5028128;28;20053;-68
2022/04/11 03:48:31;;;;;;;3.90;1.42;;;;;;;;;;5028172;28;20423;-65
2022/04/11 03:50:57;;;;;;;3.58;1.00;;;;;;;;;;5027784;28;20463;-65
2022/04/11 03:53:23;;;;;;;2.42;0.90;;;;;;;;;;5028298;28;20073;-64
2022/04/11 03:55:49;;;;;;;2.40;1.10;;;;;;;;;;5028312;28;20179;-66
2022/04/11 03:58:16;;;;;;;2.05;0.95;;;;;;;;;;5028464;28;20452;-66
2022/04/11 04:00:42;;;;;;;3.80;1.15;;;;;;;;;;5028420;28;20057;-66
2022/04/11 04:03:10;;;;;;;3.67;0.85;;;;;;;;;;5027814;28;20092;-67
2022/04/11 04:05:40;;;;;;;1.85;0.90;;;;;;;;;;5028242;28;20622;-66
2022/04/11 04:08:06;;;;;;;2.17;0.93;;;;;;;;;;5028148;28;20437;-66
2022/04/11 04:10:33;;;;;;;4.65;1.17;;;;;;;;;;5028015;28;20064;-66
2022/04/11 04:12:59;;;;;;;2.30;1.00;;;;;;;;;;5028366;28;20111;-66
2022/04/11 04:15:25;;;;;;;3.80;0.90;;;;;;;;;;5027679;28;20042;-66
2022/04/11 04:17:54;;;;;;;3.60;1.20;;;;;;;;;;5027940;28;20049;-66
2022/04/11 04:20:20;;;;;;;2.40;1.20;;;;;;;;;;5026944;28;20076;-66
2022/04/11 04:22:46;;;;;;;4.63;0.98;;;;;;;;;;5027777;28;20048;-66
2022/04/11 04:25:13;;;;;;;3.22;1.13;;;;;;;;;;5027773;28;20443;-67
2022/04/11 04:27:39;;;;;;;3.80;1.08;;;;;;;;;;5027759;28;20045;-67
2022/04/11 04:30:05;;;;;;;3.08;1.10;;;;;;;;;;5027823;28;20048;-67
2022/04/11 04:32:31;;;;;;;3.53;0.95;;;;;;;;;;5028215;28;20148;-66
2022/04/11 04:34:57;;;;;;;2.05;1.00;;;;;;;;;;5027655;28;20068;-65
2022/04/11 04:37:23;;;;;;;2.63;1.20;;;;;;;;;;5027952;28;20444;-66
2022/04/11 04:39:49;;;;;;;2.95;1.08;;;;;;;;;;5026864;28;20495;-65
2022/04/11 04:42:22;;;;;;;5.20;1.15;;;;;;;;;;5028120;28;20133;-65
2022/04/11 04:44:48;;;;;;;2.22;0.90;;;;;;;;;;5010243;28;20056;-66
2022/04/11 04:47:15;;;;;;;2.47;1.13;;;;;;;;;;5027733;28;20045;-66
2022/04/11 04:49:42;;;;;;;2.55;1.25;;;;;;;;;;5027540;28;20049;-66
2022/04/11 04:52:08;;;;;;;2.20;1.17;;;;;;;;;;5030181;28;20352;-66
2022/04/11 04:54:34;;;;;;;3.20;1.17;;;;;;;;;;5031658;28;20068;-67
2022/04/11 04:57:00;;;;;;;2.75;0.98;;;;;;;;;;5031869;28;20132;-68
2022/04/11 04:59:26;;;;;;;2.55;1.15;;;;;;;;;;5031450;28;20115;-66
2022/04/11 05:01:53;;;;;;;2.20;1.00;;;;;;;;;;5031444;28;20049;-66
2022/04/11 05:04:19;;;;;;;2.78;1.20;;;;;;;;;;5029849;28;20396;-65
2022/04/11 05:06:45;;;;;;;4.18;1.60;;;;;;;;;;5031641;28;20049;-65
2022/04/11 05:09:11;;;;;;;2.80;1.23;;;;;;;;;;5030871;28;20076;-65
2022/04/11 05:11:37;;;;;;;2.58;1.30;;;;;;;;;;5031095;28;20049;-66
2022/04/11 05:14:03;;;;;;;2.42;1.10;;;;;;;;;;5013371;28;20045;-66
2022/04/11 05:16:29;;;;;;;3.10;1.20;;;;;;;;;;5031293;28;20464;-67
2022/04/11 05:18:56;;;;;;;2.22;1.00;;;;;;;;;;5030820;28;20091;-67
2022/04/11 05:21:22;;;;;;;2.42;0.90;;;;;;;;;;5031008;28;20073;-68
2022/04/11 05:23:48;;;;;;;2.10;1.23;;;;;;;;;;5031049;28;20531;-68
2022/04/11 05:26:14;;;;;;;1.88;1.00;;;;;;;;;;5030619;28;20053;-67
2022/04/11 05:28:40;;;;;;;3.03;1.15;;;;;;;;;;5025194;28;20099;-66
2022/04/11 05:31:06;;;;;;;1.88;1.00;;;;;;;;;;5012482;28;20049;-66
2022/04/11 05:33:32;;;;;;;3.22;1.38;;;;;;;;;;5031189;28;20441;-66
2022/04/11 05:35:58;;;;;;;2.30;1.20;;;;;;;;;;5028871;28;20061;-66
2022/04/11 05:38:25;;;;;;;2.25;1.08;;;;;;;;;;5031274;28;20045;-66
2022/04/11 05:40:51;;;;;;;3.40;1.20;;;;;;;;;;5030600;28;20190;-67
2022/04/11 05:43:17;;;;;;;2.40;1.15;;;;;;;;;;5030371;28;20053;-66
2022/04/11 05:45:43;;;;;;;2.58;1.27;;;;;;;;;;5030670;28;20472;-68
2022/04/11 05:48:10;;;;;;;6.25;1.40;;;;;;;;;;5030833;28;20095;-67
2022/04/11 05:50:36;;;;;;;4.63;1.00;;;;;;;;;;5030692;28;20448;-67
2022/04/11 05:53:02;;;;;;;5.10;1.40;;;;;;;;;;5030783;28;20046;-67
2022/04/11 05:55:29;;;;;;;4.70;1.20;;;;;;;;;;5049895;28;20040;-66
2022/04/11 05:57:55;;;;;;;6.30;1.60;;;;;;;;;;5050276;28;20044;-66
2022/04/11 06:00:21;;;;;;;3.20;1.25;;;;;;;;;;5050245;28;20150;-66
2022/04/11 06:02:48;;;;;;;2.42;1.05;;;;;;;;;;5049077;28;20507;-66
2022/04/11 06:05:14;;;;;;;2.95;1.25;;;;;;;;;;5050426;28;20045;-66
2022/04/11 06:07:41;;;;;;;4.47;1.23;;;;;;;;;;5050432;28;20167;-66
2022/04/11 06:10:08;;;;;;;5.00;1.10;;;;;;;;;;5050052;28;20071;-66
2022/04/11 06:12:34;;;;;;;3.35;1.38;;;;;;;;;;5050189;28;20396;-66
2022/04/11 06:15:00;;;;;;;5.47;1.35;;;;;;;;;;5050002;28;20052;-66
2022/04/11 06:17:26;;;;;;;2.50;1.20;;;;;;;;;;5050393;28;20045;-66
2022/04/11 06:19:53;;;;;;;4.65;1.13;;;;;;;;;;5050306;28;20041;-66
2022/04/11 06:22:19;;;;;;;5.90;1.30;;;;;;;;;;5050137;28;20084;-66
2022/04/11 06:24:46;;;;;;;2.70;1.00;;;;;;;;;;5049509;28;20045;-66
2022/04/11 06:27:12;;;;;;;4.35;1.00;;;;;;;;;;5050176;28;20080;-66
2022/04/11 06:29:38;;;;;;;3.10;1.17;;;;;;;;;;5065554;28;20072;-66
2022/04/11 06:32:05;;;;;;;2.58;1.30;;;;;;;;;;5049512;28;20052;-66
2022/04/11 06:34:32;;;;;;;3.25;1.83;;;;;;;;;;5049755;28;20061;-65
2022/04/11 06:36:58;;;;;;;3.60;1.02;;;;;;;;;;5050015;28;20063;-65
2022/04/11 06:39:24;;;;;;;3.97;1.30;;;;;;;;;;5050084;28;20821;-66
2022/04/11 06:41:50;;;;;;;2.13;1.05;;;;;;;;;;5049771;28;20526;-65
2022/04/11 06:44:16;;;;;;;2.85;1.00;;;;;;;;;;5049842;28;20049;-65
2022/04/11 06:46:42;;;;;;;4.43;1.02;;;;;;;;;;5049918;28;20131;-67
2022/04/11 06:49:08;;;;;;;5.10;1.30;;;;;;;;;;5049165;28;20041;-66
2022/04/11 06:51:34;;;;;;;3.20;1.30;;;;;;;;;;5050120;28;20385;-67
2022/04/11 06:54:00;;;;;;;3.15;1.00;;;;;;;;;;5065012;28;20045;-66
2022/04/11 06:56:26;;;;;;;4.07;1.25;;;;;;;;;;5050039;28;20135;-66
2022/04/11 06:58:53;;;;;;;3.85;1.40;;;;;;;;;;5049430;28;20044;-66
2022/04/11 07:01:19;;;;;;;3.15;1.40;;;;;;;;;;5031071;28;20041;-66
2022/04/11 07:03:45;;;;;;;4.07;0.95;;;;;;;;;;5049752;28;20040;-66
2022/04/11 07:06:11;;;;;;;5.45;1.55;;;;;;;;;;5049580;28;20107;-67
2022/04/11 07:08:37;;;;;;;3.25;1.40;;;;;;;;;;5049332;28;20147;-66
2022/04/11 07:11:04;;;;;;;2.53;1.15;;;;;;;;;;5048878;28;20495;-66
2022/04/11 07:13:31;;;;;;;2.22;1.15;;;;;;;;;;5049208;28;20075;-67
2022/04/11 07:15:57;;;;;;;3.38;1.20;;;;;;;;;;5049120;28;20052;-67
2022/04/11 07:18:27;;;;;;;2.63;1.00;;;;;;;;;;5049206;28;20133;-67
2022/04/11 07:20:53;;;;;;;1.92;1.08;;;;;;;;;;5049239;28;20041;-66
2022/04/11 07:23:19;;;;;;;2.22;1.33;;;;;;;;;;5048291;28;20037;-67
2022/04/11 07:25:46;;;;;;;7.20;1.20;;;;;;;;;;5049020;28;20072;-66
2022/04/11 07:28:13;;;;;;;2.72;1.05;;;;;;;;;;5048808;28;20049;-67
2022/04/11 07:30:39;;;;;;;1.63;0.80;;;;;;;;;;5064273;28;20064;-67
2022/04/11 07:33:05;;;;;;;3.40;1.15;;;;;;;;;;5048847;28;20103;-67
2022/04/11 07:35:31;;;;;;;4.20;1.20;;;;;;;;;;5063464;28;20056;-67
2022/04/11 07:38:01;;;;;;;7.15;1.95;;;;;;;;;;5048866;28;20411;-66
2022/04/11 07:40:30;;;;;;;8.23;1.42;;;;;;;;;;5048271;28;20499;-67
2022/04/11 07:42:56;;;;;;;4.25;0.75;;;;;;;;;;5030528;28;20045;-67
2022/04/11 07:45:23;;;;;;;2.95;1.23;;;;;;;;;;5048841;28;20388;-68
2022/04/11 07:47:49;;;;;;;8.52;1.42;;;;;;;;;;5048706;28;20051;-67
2022/04/11 07:50:15;;;;;;;5.22;1.42;;;;;;;;;;5048502;28;20048;-68
2022/04/11 07:52:42;;;;;;;2.70;1.00;;;;;;;;;;5048749;28;20108;-67
2022/04/11 07:55:09;;;;;;;2.55;1.10;;;;;;;;;;5030497;28;20060;-68
2022/04/11 07:57:35;;;;;;;6.00;1.10;;;;;;;;;;5048746;28;20049;-67
2022/04/11 08:00:01;;;;;;;3.13;1.30;;;;;;;;;;5048000;28;20124;-66
2022/04/11 08:02:28;;;;;;;4.25;1.17;;;;;;;;;;5048675;28;20037;-66
2022/04/11 08:04:54;;;;;;;2.50;1.15;;;;;;;;;;5048403;28;20056;-66
2022/04/11 08:07:21;;;;;;;3.00;1.10;;;;;;;;;;5047982;28;20044;-66
2022/04/11 08:09:48;;;;;;;3.80;1.23;;;;;;;;;;5048479;28;20565;-66
2022/04/11 08:12:17;;;;;;;2.20;1.05;;;;;;;;;;5047815;28;20353;-66
2022/04/11 08:14:43;;;;;;;2.50;1.13;;;;;;;;;;5048536;28;20044;-66
2022/04/11 08:17:09;;;;;;;4.45;1.00;;;;;;;;;;5048411;28;20045;-67
2022/04/11 08:19:35;;;;;;;2.40;0.90;;;;;;;;;;5047848;28;20045;-67
2022/04/11 08:22:01;;;;;;;2.55;1.10;;;;;;;;;;5048214;28;20122;-66
2022/04/11 08:24:28;;;;;;;3.17;1.17;;;;;;;;;;5048341;28;20108;-66
2022/04/11 08:26:54;;;;;;;2.17;0.75;;;;;;;;;;5050423;28;20456;-65
2022/04/11 08:29:20;;;;;;;3.58;0.85;;;;;;;;;;5051618;28;20515;-66
2022/04/11 08:31:46;;;;;;;2.90;1.08;;;;;;;;;;5050028;28;20049;-65
2022/04/11 08:34:12;;;;;;;2.05;1.00;;;;;;;;;;5046319;28;20068;-67
2022/04/11 08:36:38;;;;;;;2.63;0.98;;;;;;;;;;5050663;28;20074;-65
2022/04/11 08:39:05;;;;;;;3.72;0.90;;;;;;;;;;5032497;28;20044;-66
2022/04/11 08:41:35;;;;;;;2.53;0.80;;;;;;;;;;5050682;28;20527;-66
2022/04/11 08:44:02;;;;;;;2.75;1.10;;;;;;;;;;5050868;28;20088;-65
2022/04/11 08:46:29;;;;;;;1.52;0.90;;;;;;;;;;5050428;28;20045;-66
2022/04/11 08:48:56;;;;;;;2.17;0.90;;;;;;;;;;5050856;28;20056;-67
2022/04/11 08:51:22;;;;;;;2.05;0.80;;;;;;;;;;5049271;28;20040;-66
2022/04/11 08:53:48;;;;;;;2.72;0.88;;;;;;;;;;5047741;28;20061;-67
2022/04/11 08:56:14;;;;;;;1.90;0.80;;;;;;;;;;5049283;28;20076;-66
2022/04/11 08:58:40;;;;;;;3.55;1.00;;;;;;;;;;5049737;28;20076;-65
2022/04/11 09:01:06;;;;;;;1.65;0.90;;;;;;;;;;5049465;28;20369;-65
2022/04/11 09:03:32;;;;;;;2.65;1.38;;;;;;;;;;5049321;28;20049;-68
2022/04/11 09:06:08;;;;;;;4.35;1.67;;;;;;;;;;5048791;28;20067;-65
2022/04/11 09:08:41;;;;;;;4.10;1.80;;;;;;;;;;5031741;28;20136;-65
2022/04/11 09:11:08;;;;;;;3.88;1.60;;;;;;;;;;5047297;28;20045;-66
2022/04/11 09:13:48;;;;;;;3.40;1.50;;;;;;;;;;5049546;28;20487;-66
2022/04/11 09:16:14;;;;;;;4.90;1.70;;;;;;;;;;5047672;28;20052;-66
2022/04/11 09:18:53;;;;;;;4.28;1.50;;;;;;;;;;5048798;28;20045;-65
2022/04/11 09:21:20;;;;;;;3.28;1.50;;;;;;;;;;5046265;28;20045;-66
2022/04/11 09:23:47;;;;;;;4.65;2.00;;;;;;;;;;5048720;28;20045;-66
2022/04/11 09:26:16;;;;;;;3.15;1.38;;;;;;;;;;5048834;28;20071;-66
2022/04/11 09:28:42;;;;;;;3.65;1.38;;;;;;;;;;5048769;28;20130;-66
2022/04/11 09:31:08;;;;;;;4.05;1.30;;;;;;;;;;5046469;28;20045;-66
2022/04/11 09:33:38;;;;;;;3.53;1.27;;;;;;;;;;5048036;28;20467;-66
2022/04/11 09:36:04;;;;;;;4.70;1.45;;;;;;;;;;5049124;28;20167;-65
2022/04/11 09:38:36;;;;;;;4.22;1.20;;;;;;;;;;5030514;28;20041;-64
2022/04/11 09:41:02;;;;;;;3.28;1.50;;;;;;;;;;5044146;28;20110;-65
2022/04/11 09:43:29;;;;;;;2.70;1.38;;;;;;;;;;5049829;28;20143;-67
2022/04/11 09:45:56;;;;;;;4.50;1.50;;;;;;;;;;5049470;28;20040;-67
2022/04/11 09:48:26;;;;;;;3.90;1.58;;;;;;;;;;5049171;28;20159;-67
2022/04/11 09:50:53;;;;;;;3.10;1.50;;;;;;;;;;5049863;28;20056;-67
2022/04/11 09:53:21;;;;;;;3.75;1.65;;;;;;;;;;5049210;28;20044;-66
2022/04/11 09:55:50;;;;;;;4.22;1.58;;;;;;;;;;5047991;28;20041;-66
2022/04/11 09:58:17;;;;;;;4.05;1.58;;;;;;;;;;5030983;28;20067;-67
2022/04/11 10:00:44;;;;;;;3.97;1.42;;;;;;;;;;5048353;28;20396;-70
2022/04/11 10:03:10;;;;;;;3.42;1.30;;;;;;;;;;5047370;28;21461;-70
2022/04/11 10:05:37;;;;;;;5.82;1.40;;;;;;;;;;5048221;28;20037;-68
2022/04/11 10:08:04;;;;;;;4.20;1.20;;;;;;;;;;5048203;28;20471;-69
2022/04/11 10:10:31;;;;;;;1.88;1.20;;;;;;;;;;5049021;28;20122;-69
2022/04/11 10:13:00;;;;;;;2.75;1.23;;;;;;;;;;5047118;28;20045;-68
2022/04/11 10:15:26;;;;;;;2.83;1.40;;;;;;;;;;5049943;28;20044;-67
2022/04/11 10:17:53;;;;;;;3.53;1.23;;;;;;;;;;5048667;28;20102;-69
2022/04/11 10:20:29;;;;;;;1.92;0.95;;;;;;;;;;5047195;28;20156;-68
2022/04/11 10:22:57;;;;;;;4.00;1.50;;;;;;;;;;5048356;28;20049;-69
2022/04/11 10:25:24;;;;;;;4.45;1.17;;;;;;;;;;5048479;28;20071;-68
2022/04/11 10:28:10;;;;;;;2.60;0.93;;;;;;;;;;5048097;28;20411;-69
2022/04/11 10:30:36;;;;;;;3.47;0.90;;;;;;;;;;5047870;28;20041;-68
2022/04/11 10:33:02;;;;;;;4.20;1.05;;;;;;;;;;5037259;28;20042;-68
2022/04/11 10:35:33;;;;;;;3.50;1.10;;;;;;;;;;5048721;28;20057;-68
2022/04/11 10:37:59;;;;;;;3.20;1.25;;;;;;;;;;5048206;28;20061;-67
2022/04/11 10:40:25;;;;;;;4.45;1.17;;;;;;;;;;5031459;28;20416;-69
2022/04/11 10:42:54;;;;;;;2.65;1.10;;;;;;;;;;5048463;28;20471;-68
2022/04/11 10:45:29;;;;;;;3.72;1.38;;;;;;;;;;5048515;28;20114;-68
2022/04/11 10:47:56;;;;;;;3.63;1.20;;;;;;;;;;5047973;28;20072;-67
2022/04/11 10:50:23;;;;;;;2.92;1.15;;;;;;;;;;5046627;28;20123;-68
2022/04/11 10:52:56;;;;;;;4.05;1.17;;;;;;;;;;5017687;28;20103;-69
2022/04/11 10:55:22;;;;;;;3.80;1.75;;;;;;;;;;5047360;28;20052;-69
2022/04/11 10:57:50;;;;;;;2.53;1.00;;;;;;;;;;5046982;28;20041;-69
2022/04/11 11:00:17;;;;;;;5.72;1.15;;;;;;;;;;5047646;28;20037;-70
2022/04/11 11:02:52;;;;;;;2.45;0.90;;;;;;;;;;5045357;28;20082;-71
2022/04/11 11:05:39;;;;;;;3.55;1.13;;;;;;;;;;5047440;28;20079;-70
2022/04/11 11:08:13;;;;;;;2.20;1.00;;;;;;;;;;5046453;28;20095;-70
2022/04/11 11:10:51;;;;;;;2.25;0.90;;;;;;;;;;5047243;28;20087;-69
2022/04/11 11:13:32;;;;;;;2.85;1.10;;;;;;;;;;5045858;28;20147;-68
2022/04/11 11:15:58;;;;;;;2.20;0.85;;;;;;;;;;5046142;28;20107;-70
2022/04/11 11:18:25;;;;;;;1.48;0.90;;;;;;;;;;5047064;28;20053;-69
2022/04/11 11:20:52;;;;;;;2.15;1.13;;;;;;;;;;5046380;28;20083;-69
2022/04/11 11:23:21;;;;;;;2.95;0.90;;;;;;;;;;5044833;28;20061;-69
2022/04/11 11:25:49;;;;;;;2.50;0.90;;;;;;;;;;5046766;28;20103;-68
2022/04/11 11:28:15;;;;;;;1.73;0.90;;;;;;;;;;5042665;28;20116;-68
2022/04/11 11:30:41;;;;;;;2.13;0.82;;;;;;;;;;5029687;28;20171;-69
2022/04/11 11:33:13;;;;;;;4.82;1.30;;;;;;;;;;5046083;28;20041;-69
2022/04/11 11:35:52;;;;;;;2.08;0.80;;;;;;;;;;5045845;28;20143;-67
2022/04/11 11:38:23;;;;;;;2.47;1.08;;;;;;;;;;5044685;28;20052;-67
2022/04/11 11:40:53;;;;;;;2.65;0.70;;;;;;;;;;5046034;28;20117;-68
2022/04/11 11:43:20;;;;;;;2.08;0.93;;;;;;;;;;5042030;28;20044;-68
2022/04/11 11:45:47;;;;;;;2.60;0.88;;;;;;;;;;5040516;28;20187;-68
2022/04/11 11:48:26;;;;;;;1.98;0.75;;;;;;;;;;5046087;28;20493;-68
2022/04/11 11:50:55;;;;;;;;;;;;;;;;;;5026179;28;20488;-68
2022/04/11 11:53:21;;;;;;;4.13;0.93;;;;;;;;;;5045314;28;19920;-67
2022/04/11 11:55:54;;;;;;;2.85;0.95;;;;;;;;;;5045105;28;20469;-67
2022/04/11 11:58:20;;;;;;;2.13;1.10;;;;;;;;;;5045856;28;20519;-70
2022/04/11 12:00:49;;;;;;;2.35;1.00;;;;;;;;;;5029007;28;20642;-69
2022/04/11 12:06:02;;;;;;;2.22;0.95;;;;;;;;;;5040027;28;20103;-68
2022/04/11 12:08:30;;;;;;;1.73;0.77;;;;;;;;;;5026949;28;20036;-67
2022/04/11 12:11:00;;;;;;;3.20;0.93;;;;;;;;;;5045069;28;20051;-67
2022/04/11 12:13:33;;;;;;;2.38;1.02;;;;;;;;;;5045326;28;20549;-68
2022/04/11 12:16:15;;;;;;;3.35;0.82;;;;;;;;;;5044277;28;20048;-68
2022/04/11 12:18:48;;;;;;;3.17;0.80;;;;;;;;;;5043351;28;20037;-67
2022/04/11 12:21:14;;;;;;;2.65;0.82;;;;;;;;;;5045496;28;20045;-66
2022/04/11 12:23:47;;;;;;;2.67;0.90;;;;;;;;;;5046428;28;20037;-69
2022/04/11 12:26:23;;;;;;;5.68;1.20;;;;;;;;;;5027969;28;20048;-70
2022/04/11 12:28:49;;;;;;;4.15;1.33;;;;;;;;;;5058245;28;20036;-69
2022/04/11 12:31:18;;;;;;;3.90;1.33;;;;;;;;;;5047761;28;20044;-69
2022/04/11 12:33:46;;;;;;;2.63;0.98;;;;;;;;;;5065719;28;20056;-69
2022/04/11 12:36:17;;;;;;;5.68;1.38;;;;;;;;;;5065377;28;20489;-69
2022/04/11 12:38:54;;;;;;;4.53;1.38;;;;;;;;;;5066682;28;20097;-70
2022/04/11 12:41:24;;;;;;;4.53;1.13;;;;;;;;;;5064861;28;20119;-69
2022/04/11 12:44:08;;;;;;;2.38;1.00;;;;;;;;;;5065338;28;20037;-69
2022/04/11 12:46:36;;;;;;;4.22;1.35;;;;;;;;;;5065831;28;20086;-66
2022/04/11 12:49:02;;;;;;;9.07;1.30;;;;;;;;;;5066155;28;20134;-68
2022/04/11 12:51:31;;;;;;;3.45;0.80;;;;;;;;;;5066256;28;20036;-68
2022/04/11 12:54:04;;;;;;;7.00;0.90;;;;;;;;;;5066240;28;20052;-67
2022/04/11 12:56:34;;;;;;;4.35;1.35;;;;;;;;;;5064749;28;20036;-67
2022/04/11 12:59:00;;;;;;;3.08;0.88;;;;;;;;;;5065922;28;20054;-67
2022/04/11 13:01:46;;;;;;;8.05;1.70;;;;;;;;;;5066185;28;20075;-67
2022/04/11 13:04:12;;;;;;;3.75;1.15;;;;;;;;;;5064875;28;20359;-67
2022/04/11 13:06:38;;;;;;;3.60;1.10;;;;;;;;;;5065942;28;20059;-68
2022/04/11 13:09:04;;;;;;;3.70;1.00;;;;;;;;;;5047530;28;20036;-67
2022/04/11 13:11:30;;;;;;;3.90;0.93;;;;;;;;;;5066173;28;20131;-67
2022/04/11 13:13:56;;;;;;;3.00;0.93;;;;;;;;;;5069781;28;20410;-67
2022/04/11 13:19:07;;;;;;;3.08;0.75;;;;;;;;;;5068501;28;20056;-67
2022/04/11 13:21:33;;;;;;;3.05;0.82;;;;;;;;;;5051829;28;20048;-67
2022/04/11 13:23:59;;;;;;;1.95;0.80;;;;;;;;;;5069745;28;20426;-67
2022/04/11 13:26:25;;;;;;;2.90;1.00;;;;;;;;;;5069759;28;20438;-67
2022/04/11 13:28:53;;;;;;;2.90;0.70;;;;;;;;;;5068557;28;20876;-67
2022/04/11 13:31:22;;;;;;;2.67;0.77;;;;;;;;;;5067410;28;20131;-67
2022/04/11 13:33:48;;;;;;;2.13;0.70;;;;;;;;;;5069395;28;20410;-68
2022/04/11 13:36:14;;;;;;;4.68;1.02;;;;;;;;;;5069012;28;20456;-67
2022/04/11 13:38:40;;;;;;;9.23;1.25;;;;;;;;;;5069211;28;20072;-67
2022/04/11 13:41:06;;;;;;;3.08;0.90;;;;;;;;;;5066487;28;20044;-67
2022/04/11 13:43:32;;;;;;;2.75;0.80;;;;;;;;;;5050893;28;20064;-68
2022/04/11 13:45:58;;;;;;;3.92;0.90;;;;;;;;;;5069159;28;20336;-68
2022/04/11 13:48:24;;;;;;;1.90;0.80;;;;;;;;;;5069054;28;20044;-69
2022/04/11 13:50:50;;;;;;;1.63;0.65;;;;;;;;;;5069211;28;20071;-70
2022/04/11 13:53:17;;;;;;;2.25;0.88;;;;;;;;;;5050980;28;21685;-69
2022/04/11 13:55:43;;;;;;;4.53;1.05;;;;;;;;;;5068806;28;20036;-70
2022/04/11 13:58:09;;;;;;;2.08;1.00;;;;;;;;;;5068494;28;20052;-69
2022/04/11 14:00:41;;;;;;;3.40;0.95;;;;;;;;;;5068815;28;20135;-69
2022/04/11 14:03:07;;;;;;;2.63;0.95;;;;;;;;;;5068942;28;20490;-69
2022/04/11 14:05:33;;;;;;;4.10;0.90;;;;;;;;;;5051079;28;20455;-69
2022/04/11 14:07:59;;;;;;;2.33;1.00;;;;;;;;;;5067907;28;20455;-69
2022/04/11 14:10:25;;;;;;;2.60;1.00;;;;;;;;;;5068380;28;20359;-69
2022/04/11 14:12:51;;;;;;;2.53;0.82;;;;;;;;;;5068699;28;20047;-69
2022/04/11 14:15:17;;;;;;;2.83;0.90;;;;;;;;;;5050602;28;20120;-68
2022/04/11 14:17:44;;;;;;;5.78;0.88;;;;;;;;;;5067873;28;20055;-69
2022/04/11 14:20:10;;;;;;;2.80;1.10;;;;;;;;;;5050503;28;20185;-68
2022/04/11 14:22:36;;;;;;;1.67;0.70;;;;;;;;;;5068643;28;20087;-68
2022/04/11 14:25:02;;;;;;;3.70;1.10;;;;;;;;;;5066725;28;20054;-69
2022/04/11 14:27:28;;;;;;;2.38;0.80;;;;;;;;;;5067219;28;20087;-68
2022/04/11 14:29:54;;;;;;;2.88;0.90;;;;;;;;;;5065758;28;20049;-70
2022/04/11 14:32:20;;;;;;;2.60;0.80;;;;;;;;;;5068346;28;20370;-70
2022/04/11 14:34:47;;;;;;;2.17;0.85;;;;;;;;;;5067996;28;20131;-69
2022/04/11 14:37:13;;;;;;;2.67;0.80;;;;;;;;;;5067916;28;20091;-69
2022/04/11 14:39:40;;;;;;;1.70;0.60;;;;;;;;;;5068158;28;20044;-70
2022/04/11 14:42:06;;;;;;;1.08;0.60;;;;;;;;;;5067278;28;20633;-69
2022/04/11 14:44:32;;;;;;;1.88;0.80;;;;;;;;;;5049796;28;20363;-69
2022/04/11 14:46:58;;;;;;;3.25;0.80;;;;;;;;;;5067930;28;20080;-68
2022/04/11 14:49:24;;;;;;;2.05;0.80;;;;;;;;;;5065713;28;20101;-69